Time;durP1;ratioP1;P1;durP2;ratioP2;P2;SDS_P1;SDS_P2;PMS_P1;PMS_P2;Temp;Humidity;BMP_temperature;BMP_pressure;BME280_temperature;BME280_humidity;BME280_pressure;Samples;Min_cycle;Max_cycle;Signal;HPM_P1;HPM_P2
2022/03/01 00:00:31;;;;;;;129.45;47.67;;;;;;;;;;10312658;28;20073;-65
2022/03/01 00:05:42;;;;;;;112.85;44.58;;;;;;;;;;10327851;28;20045;-65
2022/03/01 00:10:46;;;;;;;116.85;46.80;;;;;;;;;;10314899;28;20042;-65
2022/03/01 00:15:48;;;;;;;125.28;49.17;;;;;;;;;;10314608;28;20050;-65
2022/03/01 00:20:50;;;;;;;129.43;51.25;;;;;;;;;;10304155;28;20062;-65
2022/03/01 00:25:54;;;;;;;146.95;56.17;;;;;;;;;;10304144;28;20063;-65
2022/03/01 00:30:57;;;;;;;132.88;49.75;;;;;;;;;;10311927;28;20062;-65
2022/03/01 00:35:59;;;;;;;124.57;48.60;;;;;;;;;;10302643;28;20147;-65
2022/03/01 00:41:03;;;;;;;116.80;46.05;;;;;;;;;;10313674;28;20054;-65
2022/03/01 00:46:07;;;;;;;181.40;80.90;;;;;;;;;;10307503;28;20054;-64
2022/03/01 00:51:09;;;;;;;138.43;53.08;;;;;;;;;;10302526;28;20122;-65
2022/03/01 00:56:13;;;;;;;125.25;50.53;;;;;;;;;;10313390;28;20045;-65
2022/03/01 01:01:15;;;;;;;151.60;55.08;;;;;;;;;;10286514;28;20063;-64
2022/03/01 01:06:18;;;;;;;168.45;61.97;;;;;;;;;;10296123;28;20043;-65
2022/03/01 01:11:21;;;;;;;148.80;57.10;;;;;;;;;;10299097;28;20408;-65
2022/03/01 01:16:24;;;;;;;156.13;57.40;;;;;;;;;;10311909;28;20364;-65
2022/03/01 01:22:39;;;;;;;151.15;57.83;;;;;;;;;;10312086;28;20046;-64
2022/03/01 01:26:50;;;;;;;148.77;57.88;;;;;;;;;;10313002;28;20074;-65
2022/03/01 01:31:53;;;;;;;190.85;65.00;;;;;;;;;;10311249;28;20101;-64
2022/03/01 01:36:55;;;;;;;187.32;70.70;;;;;;;;;;10310978;28;20238;-64
2022/03/01 01:41:59;;;;;;;179.70;76.78;;;;;;;;;;10310933;28;20047;-65
2022/03/01 01:47:02;;;;;;;166.05;66.05;;;;;;;;;;10311037;28;20066;-65
2022/03/01 01:52:05;;;;;;;116.47;47.00;;;;;;;;;;10311420;28;20046;-65
2022/03/01 01:57:16;;;;;;;126.90;50.63;;;;;;;;;;10310682;28;20059;-65
2022/03/01 02:02:21;;;;;;;107.25;44.95;;;;;;;;;;10318409;28;20054;-64
2022/03/01 02:07:23;;;;;;;;;;;;;;;;;;10307335;28;20062;-65
2022/03/01 02:12:27;;;;;;;121.88;48.58;;;;;;;;;;10311280;28;19977;-64
2022/03/01 02:17:30;;;;;;;103.72;41.90;;;;;;;;;;10283815;28;20055;-65
2022/03/01 02:22:34;;;;;;;102.65;42.55;;;;;;;;;;10280693;28;20097;-65
2022/03/01 02:27:37;;;;;;;133.00;49.95;;;;;;;;;;10319233;28;20046;-65
2022/03/01 02:32:40;;;;;;;160.68;62.55;;;;;;;;;;10318778;28;20051;-65
2022/03/01 02:37:44;;;;;;;165.05;71.88;;;;;;;;;;10319003;28;20297;-65
2022/03/01 02:42:48;;;;;;;150.48;61.30;;;;;;;;;;10318669;28;20054;-64
2022/03/01 02:47:51;;;;;;;145.80;58.35;;;;;;;;;;10316759;28;20039;-64
2022/03/01 02:52:55;;;;;;;166.55;63.85;;;;;;;;;;10316437;28;20054;-65
2022/03/01 02:57:58;;;;;;;149.13;61.75;;;;;;;;;;10316803;28;20067;-65
2022/03/01 03:03:00;;;;;;;165.45;65.43;;;;;;;;;;10316684;28;20377;-64
2022/03/01 03:08:05;;;;;;;147.98;57.00;;;;;;;;;;10315262;28;20038;-66
2022/03/01 03:13:07;;;;;;;141.77;59.27;;;;;;;;;;10316161;28;20043;-65
2022/03/01 03:18:10;;;;;;;159.35;63.95;;;;;;;;;;10315231;28;20054;-65
2022/03/01 03:23:15;;;;;;;174.90;68.60;;;;;;;;;;10315479;28;20098;-65
2022/03/01 03:28:18;;;;;;;129.18;50.97;;;;;;;;;;10314308;28;20258;-65
2022/03/01 03:33:20;;;;;;;134.68;55.28;;;;;;;;;;10303793;28;20039;-64
2022/03/01 03:38:24;;;;;;;127.55;53.58;;;;;;;;;;10314670;28;20047;-64
2022/03/01 03:43:27;;;;;;;128.05;52.83;;;;;;;;;;10312735;28;20049;-63
2022/03/01 03:48:29;;;;;;;134.48;54.83;;;;;;;;;;10313100;28;20047;-65
2022/03/01 03:53:33;;;;;;;112.97;48.45;;;;;;;;;;10314389;28;20082;-65
2022/03/01 03:58:36;;;;;;;148.88;59.97;;;;;;;;;;10314001;28;20047;-64
2022/03/01 04:03:38;;;;;;;142.55;58.13;;;;;;;;;;10310883;28;20114;-66
2022/03/01 04:08:42;;;;;;;136.15;55.88;;;;;;;;;;10296706;28;20093;-65
2022/03/01 04:13:44;;;;;;;131.52;54.25;;;;;;;;;;10314494;28;20050;-64
2022/03/01 04:18:47;;;;;;;118.47;48.60;;;;;;;;;;10315098;28;20054;-63
2022/03/01 04:23:50;;;;;;;102.50;44.22;;;;;;;;;;10313702;28;20039;-65
2022/03/01 04:28:53;;;;;;;112.70;45.90;;;;;;;;;;10313717;28;20245;-65
2022/03/01 04:33:56;;;;;;;100.97;44.58;;;;;;;;;;10317101;28;20066;-65
2022/03/01 04:39:00;;;;;;;126.65;53.67;;;;;;;;;;10312908;28;20047;-65
2022/03/01 04:44:05;;;;;;;119.35;49.10;;;;;;;;;;10312051;28;20081;-65
2022/03/01 04:49:07;;;;;;;151.43;65.82;;;;;;;;;;10312756;28;20046;-65
2022/03/01 04:54:11;;;;;;;133.52;54.45;;;;;;;;;;10313382;28;20054;-65
2022/03/01 04:59:14;;;;;;;135.85;57.92;;;;;;;;;;10312686;28;20081;-66
2022/03/01 05:04:17;;;;;;;153.10;61.33;;;;;;;;;;10311976;28;20049;-65
2022/03/01 05:09:22;;;;;;;147.88;59.00;;;;;;;;;;10312181;28;20051;-65
2022/03/01 05:14:24;;;;;;;154.60;68.07;;;;;;;;;;10311613;28;20050;-65
2022/03/01 05:19:26;;;;;;;145.27;59.13;;;;;;;;;;10311214;28;20264;-65
2022/03/01 05:24:30;;;;;;;163.23;66.20;;;;;;;;;;10309135;28;20047;-65
2022/03/01 05:29:34;;;;;;;157.18;67.45;;;;;;;;;;10255383;28;20250;-65
2022/03/01 05:34:36;;;;;;;301.83;118.28;;;;;;;;;;10310977;28;20277;-65
2022/03/01 05:39:40;;;;;;;195.00;85.38;;;;;;;;;;10310784;28;20054;-65
2022/03/01 05:44:42;;;;;;;489.30;141.90;;;;;;;;;;10311375;28;20054;-66
2022/03/01 05:49:45;;;;;;;133.52;50.20;;;;;;;;;;10311639;28;20047;-66
2022/03/01 05:54:49;;;;;;;133.00;50.88;;;;;;;;;;10310704;28;20050;-66
2022/03/01 05:59:51;;;;;;;96.57;43.08;;;;;;;;;;10309751;28;20050;-66
2022/03/01 06:04:54;;;;;;;83.38;39.83;;;;;;;;;;10309997;28;20063;-66
2022/03/01 06:09:58;;;;;;;92.22;39.88;;;;;;;;;;10309890;28;20042;-66
2022/03/01 06:15:00;;;;;;;88.13;37.58;;;;;;;;;;10297753;28;20045;-66
2022/03/01 06:20:04;;;;;;;81.93;36.88;;;;;;;;;;10310411;28;20117;-66
2022/03/01 06:25:09;;;;;;;75.32;36.58;;;;;;;;;;10304078;28;20050;-66
2022/03/01 06:30:12;;;;;;;80.95;37.20;;;;;;;;;;10322733;28;20050;-66
2022/03/01 06:35:14;;;;;;;75.43;37.65;;;;;;;;;;10295604;28;20110;-67
2022/03/01 06:40:18;;;;;;;82.72;37.75;;;;;;;;;;10285636;28;20086;-66
2022/03/01 06:45:20;;;;;;;74.17;37.37;;;;;;;;;;10286542;28;20066;-66
2022/03/01 06:50:23;;;;;;;72.18;36.08;;;;;;;;;;10303655;28;20125;-65
2022/03/01 06:55:28;;;;;;;65.80;36.85;;;;;;;;;;10308914;28;20046;-66
2022/03/01 07:00:30;;;;;;;;;;;;;;;;;;10307763;28;20074;-66
2022/03/01 07:05:33;;;;;;;62.33;35.03;;;;;;;;;;10307265;28;19922;-67
2022/03/01 07:10:38;;;;;;;62.40;35.43;;;;;;;;;;10294420;28;20044;-67
2022/03/01 07:15:41;;;;;;;71.68;42.35;;;;;;;;;;10311202;28;20134;-66
2022/03/01 07:20:44;;;;;;;80.28;46.25;;;;;;;;;;10314948;28;20346;-66
2022/03/01 07:25:49;;;;;;;73.30;38.28;;;;;;;;;;10315470;28;20054;-67
2022/03/01 07:30:51;;;;;;;68.80;34.80;;;;;;;;;;10314213;28;20038;-67
2022/03/01 07:35:53;;;;;;;59.92;35.67;;;;;;;;;;10285078;28;20043;-67
2022/03/01 07:40:57;;;;;;;;;;;;;;;;;;10302414;28;20051;-67
2022/03/01 07:45:59;;;;;;;51.88;30.83;;;;;;;;;;10281531;28;19918;-66
2022/03/01 07:51:02;;;;;;;49.20;27.80;;;;;;;;;;10298352;28;20054;-66
2022/03/01 07:56:06;;;;;;;45.15;28.30;;;;;;;;;;10314299;28;20126;-66
2022/03/01 08:01:09;;;;;;;50.45;28.20;;;;;;;;;;10314030;28;20082;-67
2022/03/01 08:06:11;;;;;;;46.63;26.48;;;;;;;;;;10315333;28;20167;-67
2022/03/01 08:11:15;;;;;;;37.42;23.63;;;;;;;;;;10314278;28;20070;-67
2022/03/01 08:16:19;;;;;;;35.00;22.15;;;;;;;;;;10313476;28;20073;-67
2022/03/01 08:21:21;;;;;;;44.00;25.42;;;;;;;;;;10313402;28;20249;-66
2022/03/01 08:26:25;;;;;;;51.67;29.10;;;;;;;;;;10285697;28;20043;-67
2022/03/01 08:31:27;;;;;;;51.03;33.13;;;;;;;;;;10273596;28;20047;-66
2022/03/01 08:36:30;;;;;;;39.90;23.58;;;;;;;;;;10282601;28;20059;-66
2022/03/01 08:41:33;;;;;;;41.63;25.95;;;;;;;;;;10310438;28;20277;-67
2022/03/01 08:46:36;;;;;;;37.97;24.27;;;;;;;;;;10294729;28;20346;-68
2022/03/01 08:51:39;;;;;;;37.05;23.40;;;;;;;;;;10295665;28;20046;-66
2022/03/01 08:56:43;;;;;;;40.65;23.95;;;;;;;;;;10311294;28;20058;-66
2022/03/01 09:01:45;;;;;;;30.13;19.10;;;;;;;;;;10311622;28;20098;-68
2022/03/01 09:06:47;;;;;;;25.38;16.08;;;;;;;;;;10310728;28;20110;-68
2022/03/01 09:11:51;;;;;;;22.40;13.98;;;;;;;;;;10311094;28;20070;-67
2022/03/01 09:16:53;;;;;;;24.13;15.60;;;;;;;;;;10311961;28;20046;-67
2022/03/01 09:21:56;;;;;;;22.98;13.75;;;;;;;;;;10310485;28;20055;-67
2022/03/01 09:27:01;;;;;;;30.02;20.10;;;;;;;;;;10311084;28;20054;-66
2022/03/01 09:32:04;;;;;;;30.40;18.40;;;;;;;;;;10323490;28;20340;-66
2022/03/01 09:37:07;;;;;;;36.75;20.42;;;;;;;;;;10305748;28;20050;-67
2022/03/01 09:42:11;;;;;;;41.70;23.67;;;;;;;;;;10309911;28;20043;-66
2022/03/01 09:47:13;;;;;;;39.30;21.52;;;;;;;;;;10293034;28;20055;-65
2022/03/01 09:52:16;;;;;;;31.73;17.70;;;;;;;;;;10309184;28;20086;-67
2022/03/01 09:57:20;;;;;;;37.88;20.05;;;;;;;;;;10308707;28;20062;-67
2022/03/01 10:02:33;;;;;;;23.52;13.10;;;;;;;;;;10310666;28;20380;-66
2022/03/01 10:07:38;;;;;;;26.77;15.20;;;;;;;;;;10323019;28;20089;-66
2022/03/01 10:12:42;;;;;;;16.63;10.30;;;;;;;;;;10310099;28;20055;-67
2022/03/01 10:17:47;;;;;;;21.65;10.50;;;;;;;;;;10309307;28;20042;-66
2022/03/01 10:22:51;;;;;;;24.50;12.48;;;;;;;;;;10309865;28;20126;-65
2022/03/01 10:27:55;;;;;;;32.33;15.40;;;;;;;;;;10309426;28;20051;-66
2022/03/01 10:33:06;;;;;;;35.70;19.17;;;;;;;;;;10309503;28;20300;-67
2022/03/01 10:38:11;;;;;;;28.58;16.77;;;;;;;;;;10309428;28;20043;-66
2022/03/01 10:43:15;;;;;;;27.87;14.93;;;;;;;;;;10310359;28;20261;-66
2022/03/01 10:48:25;;;;;;;19.42;11.25;;;;;;;;;;10316594;28;20051;-66
2022/03/01 10:53:32;;;;;;;31.77;16.33;;;;;;;;;;10315994;28;20058;-66
2022/03/01 10:58:37;;;;;;;34.50;16.77;;;;;;;;;;10316263;28;20412;-65
2022/03/01 11:03:40;;;;;;;29.05;15.32;;;;;;;;;;10316333;28;20109;-66
2022/03/01 11:08:46;;;;;;;24.60;13.25;;;;;;;;;;10316945;28;20043;-67
2022/03/01 11:13:50;;;;;;;24.73;13.13;;;;;;;;;;10317412;28;20116;-67
2022/03/01 11:18:57;;;;;;;25.23;11.93;;;;;;;;;;10284983;28;20302;-67
2022/03/01 11:24:00;;;;;;;26.95;12.38;;;;;;;;;;10300955;28;20050;-66
2022/03/01 11:29:09;;;;;;;26.50;13.48;;;;;;;;;;10316806;28;20054;-66
2022/03/01 11:34:14;;;;;;;20.58;11.88;;;;;;;;;;10329145;28;20042;-66
2022/03/01 11:39:20;;;;;;;19.98;11.82;;;;;;;;;;10316413;28;20393;-67
2022/03/01 11:44:25;;;;;;;30.35;11.35;;;;;;;;;;10309251;28;20075;-66
2022/03/01 11:49:33;;;;;;;22.67;12.13;;;;;;;;;;10276530;28;20365;-67
2022/03/01 11:54:37;;;;;;;39.42;13.55;;;;;;;;;;10287384;28;20334;-66
2022/03/01 11:59:43;;;;;;;22.83;12.98;;;;;;;;;;10281602;28;20137;-66
2022/03/01 12:04:47;;;;;;;26.83;14.13;;;;;;;;;;10298186;28;20058;-66
2022/03/01 12:09:58;;;;;;;22.65;14.20;;;;;;;;;;10314808;28;20361;-67
2022/03/01 12:15:02;;;;;;;21.95;11.68;;;;;;;;;;10313498;28;20258;-66
2022/03/01 12:20:09;;;;;;;21.92;10.82;;;;;;;;;;10313008;28;20063;-66
2022/03/01 12:25:12;;;;;;;19.35;11.50;;;;;;;;;;10326919;28;20039;-66
2022/03/01 12:30:19;;;;;;;20.40;10.43;;;;;;;;;;10311873;28;20046;-66
2022/03/01 12:35:22;;;;;;;21.88;10.50;;;;;;;;;;10327114;28;20085;-66
2022/03/01 12:40:27;;;;;;;17.83;10.02;;;;;;;;;;10313152;28;20051;-65
2022/03/01 12:45:37;;;;;;;17.90;10.27;;;;;;;;;;10312430;28;20042;-67
2022/03/01 12:50:46;;;;;;;17.80;10.23;;;;;;;;;;10324848;28;20054;-65
2022/03/01 12:55:51;;;;;;;17.55;9.80;;;;;;;;;;10325776;28;20050;-66
2022/03/01 13:01:06;;;;;;;15.80;9.52;;;;;;;;;;10312289;28;20054;-66
2022/03/01 13:06:10;;;;;;;17.67;9.00;;;;;;;;;;10324170;28;20046;-66
2022/03/01 13:11:14;;;;;;;15.73;9.77;;;;;;;;;;10312180;28;20047;-65
2022/03/01 13:16:22;;;;;;;19.80;10.00;;;;;;;;;;10312140;28;20035;-66
2022/03/01 13:21:27;;;;;;;17.55;10.20;;;;;;;;;;10309997;28;20059;-67
2022/03/01 13:26:29;;;;;;;17.45;9.52;;;;;;;;;;10278897;28;20047;-66
2022/03/01 13:31:33;;;;;;;17.48;9.43;;;;;;;;;;10309050;28;20051;-66
2022/03/01 13:36:39;;;;;;;17.08;9.77;;;;;;;;;;10309672;28;20043;-65
2022/03/01 13:41:43;;;;;;;21.70;10.40;;;;;;;;;;10309739;28;20059;-66
2022/03/01 13:47:00;;;;;;;20.20;9.73;;;;;;;;;;10274908;28;20310;-66
2022/03/01 13:52:09;;;;;;;21.85;10.68;;;;;;;;;;10310581;28;20046;-66
2022/03/01 13:57:24;;;;;;;20.08;9.95;;;;;;;;;;10309335;28;20071;-67
2022/03/01 14:02:29;;;;;;;17.33;10.67;;;;;;;;;;10309600;28;20054;-66
2022/03/01 14:07:31;;;;;;;22.30;10.47;;;;;;;;;;10309079;28;20046;-66
2022/03/01 14:12:35;;;;;;;18.10;10.32;;;;;;;;;;10296708;28;20059;-66
2022/03/01 14:17:39;;;;;;;23.48;10.80;;;;;;;;;;10305308;28;20047;-66
2022/03/01 14:22:41;;;;;;;18.95;10.18;;;;;;;;;;10309634;28;20046;-67
2022/03/01 14:27:44;;;;;;;21.70;12.35;;;;;;;;;;10291384;28;20339;-66
2022/03/01 14:32:48;;;;;;;20.33;11.15;;;;;;;;;;10304111;28;20046;-66
2022/03/01 14:37:50;;;;;;;20.58;11.63;;;;;;;;;;10309332;28;20050;-66
2022/03/01 14:42:53;;;;;;;24.83;13.10;;;;;;;;;;10308923;28;20258;-66
2022/03/01 14:47:58;;;;;;;22.90;11.93;;;;;;;;;;10301057;28;20066;-67
2022/03/01 14:53:00;;;;;;;28.45;13.70;;;;;;;;;;10301190;28;20055;-66
2022/03/01 14:58:04;;;;;;;22.40;12.13;;;;;;;;;;10308365;28;20063;-66
2022/03/01 15:03:09;;;;;;;25.02;11.85;;;;;;;;;;10306267;28;20126;-65
2022/03/01 15:08:12;;;;;;;21.73;11.53;;;;;;;;;;10308422;28;20047;-67
2022/03/01 15:13:15;;;;;;;22.92;12.05;;;;;;;;;;10294170;28;20055;-66
2022/03/01 15:18:18;;;;;;;38.10;12.50;;;;;;;;;;10270471;28;20051;-66
2022/03/01 15:23:21;;;;;;;19.83;11.48;;;;;;;;;;10303590;28;20047;-67
2022/03/01 15:28:23;;;;;;;31.88;12.85;;;;;;;;;;10304999;28;20046;-66
2022/03/01 15:33:27;;;;;;;23.70;12.20;;;;;;;;;;10315427;28;20121;-66
2022/03/01 15:38:29;;;;;;;26.13;12.63;;;;;;;;;;10314988;28;20046;-67
2022/03/01 15:43:32;;;;;;;23.38;12.15;;;;;;;;;;10310865;28;20053;-66
2022/03/01 15:48:37;;;;;;;23.98;12.50;;;;;;;;;;10315288;28;20050;-66
2022/03/01 15:53:39;;;;;;;21.67;12.13;;;;;;;;;;10312313;28;20050;-67
2022/03/01 15:58:42;;;;;;;28.48;12.15;;;;;;;;;;10290071;28;20370;-68
2022/03/01 16:03:47;;;;;;;52.78;21.40;;;;;;;;;;10301866;28;20066;-66
2022/03/01 16:08:49;;;;;;;102.32;37.13;;;;;;;;;;10313640;28;20050;-67
2022/03/01 16:13:51;;;;;;;76.07;29.42;;;;;;;;;;10307944;28;20254;-66
2022/03/01 16:18:55;;;;;;;82.03;30.02;;;;;;;;;;10313186;28;20051;-68
2022/03/01 16:23:57;;;;;;;59.10;25.83;;;;;;;;;;10312570;28;20059;-66
2022/03/01 16:29:00;;;;;;;85.00;33.72;;;;;;;;;;10314059;28;20046;-67
2022/03/01 16:34:04;;;;;;;113.88;53.40;;;;;;;;;;10300879;28;20047;-66
2022/03/01 16:39:08;;;;;;;147.32;60.50;;;;;;;;;;10312595;28;20047;-66
2022/03/01 16:44:11;;;;;;;101.78;48.40;;;;;;;;;;10311718;28;20078;-67
2022/03/01 16:49:16;;;;;;;87.75;39.65;;;;;;;;;;10311705;28;20047;-66
2022/03/01 16:54:18;;;;;;;49.65;23.15;;;;;;;;;;10312414;28;20069;-66
2022/03/01 16:59:21;;;;;;;30.75;14.57;;;;;;;;;;10312393;28;20369;-67
2022/03/01 17:04:25;;;;;;;30.00;15.45;;;;;;;;;;10311504;28;20059;-66
2022/03/01 17:09:28;;;;;;;61.60;24.50;;;;;;;;;;10311738;28;20050;-67
2022/03/01 17:14:31;;;;;;;127.22;62.15;;;;;;;;;;10312679;28;20050;-67
2022/03/01 17:19:34;;;;;;;65.57;24.00;;;;;;;;;;10309020;28;20333;-66
2022/03/01 17:24:37;;;;;;;97.28;37.17;;;;;;;;;;10304671;28;20090;-67
2022/03/01 17:29:39;;;;;;;37.00;16.45;;;;;;;;;;10309137;28;20054;-67
2022/03/01 17:34:46;;;;;;;40.78;18.52;;;;;;;;;;10309012;28;20047;-68
2022/03/01 17:39:49;;;;;;;46.53;22.55;;;;;;;;;;10320540;28;20045;-67
2022/03/01 17:44:51;;;;;;;44.88;19.73;;;;;;;;;;10306712;28;20047;-67
2022/03/01 17:49:55;;;;;;;31.90;15.75;;;;;;;;;;10310428;28;20053;-66
2022/03/01 17:54:58;;;;;;;61.03;23.65;;;;;;;;;;10305841;28;20047;-67
2022/03/01 18:00:01;;;;;;;53.97;25.75;;;;;;;;;;10298159;28;20089;-67
2022/03/01 18:05:06;;;;;;;74.32;32.38;;;;;;;;;;10307730;28;20068;-65
2022/03/01 18:10:09;;;;;;;67.00;25.67;;;;;;;;;;10308112;28;20050;-66
2022/03/01 18:15:12;;;;;;;104.47;42.80;;;;;;;;;;10308578;28;20042;-67
2022/03/01 18:20:16;;;;;;;103.60;41.85;;;;;;;;;;10309440;28;20290;-66
2022/03/01 18:25:19;;;;;;;131.93;46.88;;;;;;;;;;10308997;28;20043;-66
2022/03/01 18:30:22;;;;;;;123.30;48.78;;;;;;;;;;10308437;28;20049;-68
2022/03/01 18:35:26;;;;;;;109.90;46.00;;;;;;;;;;10306658;28;20125;-66
2022/03/01 18:40:28;;;;;;;119.00;45.70;;;;;;;;;;10298853;28;20043;-66
2022/03/01 18:45:30;;;;;;;71.15;26.85;;;;;;;;;;10274681;28;20342;-66
2022/03/01 18:50:35;;;;;;;62.40;23.70;;;;;;;;;;10279414;28;20051;-66
2022/03/01 18:55:38;;;;;;;62.47;23.95;;;;;;;;;;10285971;28;20063;-66
2022/03/01 19:00:41;;;;;;;33.28;16.55;;;;;;;;;;10279447;28;20066;-66
2022/03/01 19:05:46;;;;;;;101.00;39.15;;;;;;;;;;10284021;28;20282;-67
2022/03/01 19:10:48;;;;;;;72.20;29.55;;;;;;;;;;10290084;28;20050;-64
2022/03/01 19:15:51;;;;;;;75.80;32.65;;;;;;;;;;10282833;28;20046;-69
2022/03/01 19:20:54;;;;;;;76.72;32.53;;;;;;;;;;10280944;28;20047;-66
2022/03/01 19:25:57;;;;;;;181.07;63.28;;;;;;;;;;10282056;28;20234;-65
2022/03/01 19:31:00;;;;;;;297.33;105.95;;;;;;;;;;10289303;28;20059;-66
2022/03/01 19:36:04;;;;;;;200.05;87.30;;;;;;;;;;10297463;28;20062;-66
2022/03/01 19:41:07;;;;;;;118.95;46.13;;;;;;;;;;10289062;28;20050;-66
2022/03/01 19:46:10;;;;;;;164.52;65.75;;;;;;;;;;10278205;28;20043;-65
2022/03/01 19:51:14;;;;;;;105.55;41.50;;;;;;;;;;10281049;28;20043;-66
2022/03/01 19:56:16;;;;;;;82.97;34.38;;;;;;;;;;10280575;28;20074;-67
2022/03/01 20:01:19;;;;;;;75.50;29.67;;;;;;;;;;10278011;28;20067;-67
2022/03/01 20:06:24;;;;;;;80.15;32.50;;;;;;;;;;10283219;28;20051;-67
2022/03/01 20:11:27;;;;;;;85.23;35.60;;;;;;;;;;10284851;28;20043;-68
2022/03/01 20:16:29;;;;;;;85.38;36.60;;;;;;;;;;10278123;28;20058;-66
2022/03/01 20:21:33;;;;;;;81.43;35.67;;;;;;;;;;10280231;28;20045;-65
2022/03/01 20:26:35;;;;;;;93.05;36.92;;;;;;;;;;10284343;28;20069;-67
2022/03/01 20:31:38;;;;;;;89.95;39.20;;;;;;;;;;10281536;28;20086;-68
2022/03/01 20:36:42;;;;;;;84.75;35.88;;;;;;;;;;10277529;28;20047;-66
2022/03/01 20:41:45;;;;;;;82.22;31.55;;;;;;;;;;10289517;28;20131;-67
2022/03/01 20:46:47;;;;;;;89.88;36.28;;;;;;;;;;10289169;28;20050;-68
2022/03/01 20:51:52;;;;;;;87.72;33.67;;;;;;;;;;10288259;28;20051;-67
2022/03/01 20:56:56;;;;;;;89.50;38.53;;;;;;;;;;10297816;28;20074;-66
2022/03/01 21:02:00;;;;;;;109.10;44.45;;;;;;;;;;10283448;28;20195;-67
2022/03/01 21:07:04;;;;;;;117.40;50.63;;;;;;;;;;10286330;28;20039;-67
2022/03/01 21:12:07;;;;;;;104.15;42.22;;;;;;;;;;10309664;28;20321;-66
2022/03/01 21:17:11;;;;;;;62.45;26.88;;;;;;;;;;10311358;28;20047;-67
2022/03/01 21:22:15;;;;;;;63.20;26.92;;;;;;;;;;10312932;28;20046;-68
2022/03/01 21:27:17;;;;;;;66.07;29.33;;;;;;;;;;10309954;28;20349;-66
2022/03/01 21:32:20;;;;;;;77.93;37.40;;;;;;;;;;10311549;28;20346;-67
2022/03/01 21:37:24;;;;;;;81.85;39.45;;;;;;;;;;10311799;28;20045;-68
2022/03/01 21:42:27;;;;;;;75.22;34.53;;;;;;;;;;10309422;28;20352;-67
2022/03/01 21:47:30;;;;;;;105.75;41.75;;;;;;;;;;10309249;28;20286;-66
2022/03/01 21:52:34;;;;;;;94.22;40.20;;;;;;;;;;10310291;28;20273;-66
2022/03/01 21:57:36;;;;;;;111.85;46.15;;;;;;;;;;10311273;28;20377;-66
2022/03/01 22:02:39;;;;;;;108.88;43.78;;;;;;;;;;10310907;28;20078;-67
2022/03/01 22:07:45;;;;;;;107.05;43.05;;;;;;;;;;10309853;28;20085;-67
2022/03/01 22:12:51;;;;;;;150.63;54.20;;;;;;;;;;10305190;28;20089;-68
2022/03/01 22:17:54;;;;;;;114.68;46.92;;;;;;;;;;10323746;28;20039;-66
2022/03/01 22:22:58;;;;;;;101.80;39.78;;;;;;;;;;10307590;28;20083;-66
2022/03/01 22:28:00;;;;;;;81.45;33.28;;;;;;;;;;10307626;28;20058;-67
2022/03/01 22:33:04;;;;;;;73.78;30.67;;;;;;;;;;10311067;28;20039;-67
2022/03/01 22:38:07;;;;;;;90.15;35.67;;;;;;;;;;10310626;28;20062;-68
2022/03/01 22:43:10;;;;;;;137.05;53.15;;;;;;;;;;10317874;28;20051;-66
2022/03/01 22:48:12;;;;;;;193.52;83.13;;;;;;;;;;10317582;28;20066;-65
2022/03/01 22:53:16;;;;;;;174.75;70.35;;;;;;;;;;10303324;28;20078;-68
2022/03/01 22:58:20;;;;;;;265.20;100.75;;;;;;;;;;10277886;28;20107;-67
2022/03/01 23:03:22;;;;;;;381.63;132.93;;;;;;;;;;10303570;28;20046;-66
2022/03/01 23:08:26;;;;;;;239.05;80.13;;;;;;;;;;10316680;28;20051;-67
2022/03/01 23:13:30;;;;;;;154.20;56.50;;;;;;;;;;10316755;28;20054;-67
2022/03/01 23:18:32;;;;;;;113.40;41.83;;;;;;;;;;10316122;28;20058;-65
2022/03/01 23:23:37;;;;;;;83.20;35.33;;;;;;;;;;10317653;28;20344;-66
2022/03/01 23:28:42;;;;;;;68.18;31.58;;;;;;;;;;10316599;28;20043;-66
2022/03/01 23:33:44;;;;;;;70.85;32.17;;;;;;;;;;10329586;28;20046;-67
2022/03/01 23:38:48;;;;;;;86.25;35.63;;;;;;;;;;10317012;28;20051;-67
2022/03/01 23:43:51;;;;;;;81.50;34.17;;;;;;;;;;10314840;28;20062;-66
2022/03/01 23:48:53;;;;;;;99.22;40.17;;;;;;;;;;10315283;28;20346;-65
2022/03/01 23:53:57;;;;;;;186.57;65.50;;;;;;;;;;10315316;28;20248;-66
2022/03/01 23:58:59;;;;;;;97.43;38.13;;;;;;;;;;10314980;28;20093;-67
